createdAt,value
2019-03-08T00:04:31.834Z,7.111206
2019-03-08T00:09:54.485Z,7.121277
2019-03-08T00:15:17.600Z,7.151489
2019-03-08T00:20:40.245Z,7.050781
2019-03-08T00:26:04.314Z,7.04071
2019-03-08T00:31:25.561Z,7.010498
2019-03-08T00:36:48.224Z,6.889648
2019-03-08T00:42:10.909Z,6.90979
2019-03-08T00:47:33.686Z,6.819153
2019-03-08T00:52:57.290Z,6.748657
2019-03-08T00:58:20.250Z,6.78894
2019-03-08T01:03:43.097Z,6.889648
2019-03-08T01:09:05.795Z,6.940002
2019-03-08T01:14:28.417Z,7.010498
2019-03-08T01:19:51.027Z,7.050781
2019-03-08T01:25:13.632Z,7.04071
2019-03-08T01:30:36.463Z,7.000427
2019-03-08T01:35:59.314Z,7.111206
2019-03-08T01:41:22.091Z,7.111206
2019-03-08T01:46:44.786Z,7.000427
2019-03-08T01:52:07.641Z,6.929932
2019-03-08T01:57:30.262Z,6.889648
2019-03-08T02:02:53.949Z,6.718445
2019-03-08T02:08:18.081Z,6.597595
2019-03-08T02:13:41.157Z,6.547241
2019-03-08T02:19:04.100Z,6.506958
2019-03-08T02:24:27.514Z,6.577454
2019-03-08T02:29:50.193Z,6.678162
2019-03-08T02:35:12.857Z,6.637878
2019-03-08T02:40:35.592Z,6.567383
2019-03-08T02:45:58.360Z,6.577454
2019-03-08T02:51:22.046Z,6.577454
2019-03-08T02:56:44.698Z,6.506958
2019-03-08T03:02:07.531Z,6.456604
2019-03-08T03:07:30.996Z,6.5271
2019-03-08T03:12:53.672Z,6.476746
2019-03-08T03:18:16.366Z,6.567383
2019-03-08T03:23:39.247Z,6.597595
2019-03-08T03:29:10.778Z,6.637878
2019-03-08T03:34:33.874Z,6.758728
2019-03-08T03:39:56.811Z,6.78894
2019-03-08T03:45:19.541Z,6.77887
2019-03-08T03:50:42.349Z,6.688232
2019-03-08T03:56:05.084Z,6.678162
2019-03-08T04:01:27.852Z,6.688232
2019-03-08T04:06:50.688Z,6.718445
2019-03-08T04:12:13.643Z,6.758728
2019-03-08T04:17:37.194Z,6.728516
2019-03-08T04:22:59.002Z,6.718445
2019-03-08T04:28:21.741Z,6.718445
2019-03-08T04:33:46.478Z,6.627808
2019-03-08T04:39:09.332Z,6.547241
2019-03-08T04:44:32.095Z,6.5271
2019-03-08T04:49:54.851Z,6.5271
2019-03-08T04:55:17.790Z,6.53717
2019-03-08T05:00:40.204Z,6.5271
2019-03-08T05:06:02.973Z,6.506958
2019-03-08T05:11:25.679Z,6.5271
2019-03-08T05:16:49.134Z,6.496887
2019-03-08T05:22:11.789Z,6.476746
2019-03-08T05:27:34.670Z,6.506958
2019-03-08T05:32:58.527Z,6.53717
2019-03-08T05:38:21.298Z,6.496887
2019-03-08T05:43:44.217Z,6.5271
2019-03-08T05:49:06.915Z,6.476746
2019-03-08T05:54:29.799Z,6.547241
2019-03-08T05:59:52.593Z,6.506958
2019-03-08T06:05:15.308Z,6.496887
2019-03-08T06:10:37.958Z,6.355896
2019-03-08T06:16:00.792Z,6.295471
2019-03-08T06:21:23.645Z,6.114197
2019-03-08T06:26:46.263Z,5.872498
2019-03-08T06:32:08.955Z,5.832214
2019-03-08T06:37:31.644Z,5.852356
2019-03-08T06:42:54.340Z,5.932922
2019-03-08T06:48:17.079Z,5.872498
2019-03-08T06:53:39.700Z,5.90271
2019-03-08T06:59:02.454Z,5.852356
2019-03-08T07:04:25.153Z,5.812073
2019-03-08T07:09:47.918Z,5.842285
2019-03-08T07:15:10.597Z,5.852356
2019-03-08T07:20:33.381Z,5.882568
2019-03-08T07:25:56.040Z,5.953064
2019-03-08T07:31:20.237Z,6.134338
2019-03-08T07:36:41.847Z,6.235046
2019-03-08T07:42:04.795Z,5.056763
2019-03-08T07:53:29.394Z,5.187683
2019-03-08T07:58:52.327Z,5.479736
2019-03-08T08:04:15.343Z,5.78186
2019-03-08T08:09:39.390Z,6.194763
2019-03-08T08:15:02.289Z,6.53717
2019-03-08T08:20:25.032Z,6.607666
2019-03-08T08:25:47.793Z,6.547241
2019-03-08T08:31:10.561Z,6.567383
2019-03-08T08:36:33.283Z,6.396179
2019-03-08T08:41:56.025Z,6.446533
2019-03-08T08:47:18.754Z,6.345825
2019-03-08T08:52:41.479Z,6.758728
2019-03-08T08:58:04.245Z,7.362976
2019-03-08T09:03:26.929Z,7.503967
2019-03-08T09:08:49.587Z,7.624817
2019-03-08T09:14:12.366Z,7.816162
2019-03-08T09:19:35.061Z,7.634888
2019-03-08T09:24:57.721Z,7.705383
2019-03-08T09:30:20.499Z,7.987366
2019-03-08T09:35:43.197Z,8.208923
2019-03-08T09:41:05.946Z,7.634888
2019-03-08T09:46:28.566Z,7.574463
2019-03-08T09:51:51.291Z,7.54425
2019-03-08T09:57:14.097Z,8.450623
2019-03-08T10:02:36.859Z,9.115295
2019-03-08T10:07:59.556Z,6.627808
2019-03-08T10:13:22.566Z,5.590515
2019-03-08T10:18:45.271Z,5.691223
2019-03-08T10:24:08.094Z,5.832214
2019-03-08T10:29:30.822Z,6.114197
2019-03-08T10:34:54.754Z,6.386108
2019-03-08T10:40:17.588Z,6.627808
2019-03-08T10:45:41.201Z,7.050781
2019-03-08T10:51:03.936Z,7.091064
2019-03-08T10:56:26.736Z,7.050781
2019-03-08T11:01:49.605Z,7.332764
2019-03-08T11:07:12.322Z,8.057861
2019-03-08T11:12:35.016Z,8.54126
2019-03-08T11:17:57.725Z,8.138428
2019-03-08T11:23:20.514Z,8.571472
2019-03-08T11:28:43.265Z,8.682251
2019-03-08T11:34:06.774Z,9.880676
2019-03-08T11:39:29.479Z,10.092163
2019-03-08T11:44:52.274Z,9.064941
2019-03-08T11:50:14.997Z,8.581543
2019-03-08T11:55:37.692Z,8.611755
2019-03-08T12:01:00.364Z,8.762817
2019-03-08T12:06:23.125Z,8.893738
2019-03-08T12:11:45.768Z,8.28949
2019-03-08T12:17:08.612Z,8.571472
2019-03-08T12:22:31.483Z,9.256287
2019-03-08T12:27:54.167Z,8.54126
2019-03-08T12:33:16.839Z,8.611755
2019-03-08T12:38:40.460Z,8.712463
2019-03-08T12:44:03.295Z,9.80011
2019-03-08T12:49:25.152Z,11.743774
2019-03-08T12:54:47.929Z,11.773987
2019-03-08T13:00:10.634Z,12.408447
2019-03-08T13:05:33.514Z,12.126465
2019-03-08T13:10:56.141Z,11.44165
2019-03-08T13:16:18.878Z,11.673279
2019-03-08T13:21:41.511Z,11.784058
2019-03-08T13:27:04.392Z,11.391296
2019-03-08T13:32:27.106Z,10.313721
2019-03-08T13:37:49.617Z,9.850464
2019-03-08T13:43:12.458Z,9.487915
2019-03-08T13:48:35.342Z,9.669189
2019-03-08T13:53:58.042Z,9.226074
2019-03-08T13:59:20.816Z,9.004517
2019-03-08T14:04:43.491Z,8.79303
2019-03-08T14:10:06.190Z,8.712463
2019-03-08T14:15:29.691Z,8.551331
2019-03-08T14:20:52.351Z,8.893738
2019-03-08T14:26:15.201Z,9.155579
2019-03-08T14:31:37.986Z,9.346924
2019-03-08T14:37:01.599Z,8.893738
2019-03-08T14:42:24.236Z,8.803101
2019-03-08T14:47:46.942Z,9.125366
2019-03-08T14:53:09.674Z,9.437561
2019-03-08T14:58:36.205Z,9.739685
2019-03-08T15:03:56.532Z,9.649048
2019-03-08T15:09:17.754Z,11.018677
2019-03-08T15:14:41.389Z,12.7005
2019-03-08T15:20:04.900Z,11.965332
2019-03-08T15:25:30.604Z,10.67627
2019-03-08T15:30:51.109Z,9.699402
2019-03-08T15:36:12.755Z,9.528198
2019-03-08T15:41:36.392Z,9.518127
2019-03-08T15:46:59.367Z,8.762817
2019-03-08T15:52:22.779Z,8.601685
2019-03-08T15:57:45.419Z,8.762817
2019-03-08T16:03:08.264Z,8.470764
2019-03-08T16:08:31.062Z,8.218994
2019-03-08T16:13:54.832Z,8.309631
2019-03-08T16:19:20.769Z,8.309631
2019-03-08T16:24:41.426Z,8.067932
2019-03-08T16:30:09.464Z,7.91687
2019-03-08T16:35:26.856Z,7.765808
2019-03-08T16:40:49.623Z,7.604675
2019-03-08T16:46:12.344Z,7.453613
2019-03-08T16:51:36.106Z,7.373047
2019-03-08T16:56:58.909Z,7.242126
2019-03-08T17:02:21.646Z,7.080994
2019-03-08T17:07:44.569Z,6.990356
2019-03-08T17:13:07.249Z,6.970215
2019-03-08T17:18:29.929Z,6.990356
2019-03-08T17:23:52.728Z,7.070923
2019-03-08T17:29:15.494Z,7.080994
2019-03-08T17:34:38.398Z,7.080994
2019-03-08T17:40:01.238Z,7.091064
2019-03-08T17:45:23.899Z,7.080994
2019-03-08T17:50:47.489Z,7.04071
2019-03-08T17:56:10.214Z,6.990356
2019-03-08T18:01:36.491Z,7.091064
2019-03-08T18:07:00.372Z,7.211914
2019-03-08T18:12:23.077Z,7.373047
2019-03-08T18:17:45.889Z,7.443542
2019-03-08T18:23:08.779Z,7.453613
2019-03-08T18:28:31.659Z,7.342834
2019-03-08T18:33:54.787Z,7.242126
2019-03-08T18:39:17.006Z,7.16156
2019-03-08T18:44:40.129Z,7.050781
2019-03-08T18:50:03.059Z,7.010498
2019-03-08T18:55:25.981Z,7.04071
2019-03-08T19:00:49.296Z,7.070923
2019-03-08T19:06:12.205Z,7.191772
2019-03-08T19:11:35.136Z,7.29248
2019-03-08T19:16:57.951Z,7.272339
2019-03-08T19:22:26.286Z,7.302551
2019-03-08T19:27:43.553Z,7.362976
2019-03-08T19:33:07.414Z,7.211914
2019-03-08T19:38:30.202Z,6.819153
2019-03-08T19:43:58.384Z,6.647949
2019-03-08T19:49:21.457Z,6.607666
2019-03-08T19:54:45.376Z,6.637878
2019-03-08T20:00:08.112Z,6.396179
2019-03-08T20:05:30.972Z,6.27533
2019-03-08T20:10:53.886Z,6.134338
2019-03-08T20:16:15.842Z,6.03363
2019-03-08T20:21:38.975Z,5.882568
2019-03-08T20:27:02.126Z,5.802002
2019-03-08T20:32:24.054Z,5.832214
2019-03-08T20:37:46.883Z,5.852356
2019-03-08T20:43:09.890Z,5.953064
2019-03-08T20:48:33.153Z,5.872498
2019-03-08T20:53:56.553Z,5.872498
2019-03-08T20:59:19.812Z,5.78186
2019-03-08T21:04:42.741Z,5.671082
2019-03-08T21:10:05.646Z,5.580444
2019-03-08T21:15:28.787Z,5.489807
2019-03-08T21:20:51.979Z,5.479736
2019-03-08T21:26:14.006Z,5.590515
2019-03-08T21:31:37.031Z,5.52002
2019-03-08T21:37:00.257Z,5.550232
2019-03-08T21:42:23.280Z,5.590515
2019-03-08T21:47:45.120Z,5.620728
2019-03-08T21:53:08.009Z,5.691223
2019-03-08T21:58:30.607Z,5.671082
2019-03-08T22:03:53.412Z,5.691223
2019-03-08T22:09:16.130Z,5.77179
2019-03-08T22:14:38.812Z,5.751648
2019-03-08T22:20:01.530Z,5.812073
2019-03-08T22:25:24.199Z,5.832214
2019-03-08T22:30:47.671Z,5.90271
2019-03-08T22:36:10.385Z,6.013489
2019-03-08T22:41:34.000Z,6.104126
2019-03-08T22:46:56.744Z,6.104126
2019-03-08T22:52:19.506Z,6.174622
2019-03-08T22:57:42.635Z,6.164551
2019-03-08T23:03:06.578Z,6.245117
2019-03-08T23:08:29.365Z,6.295471
2019-03-08T23:13:52.678Z,6.27533
2019-03-08T23:19:16.225Z,6.214905
2019-03-08T23:24:39.528Z,6.164551
2019-03-08T23:30:02.925Z,6.245117
2019-03-08T23:35:26.126Z,6.295471
2019-03-08T23:40:56.976Z,6.214905
2019-03-08T23:46:28.783Z,6.194763
2019-03-08T23:51:51.584Z,6.265259
2019-03-08T23:57:14.387Z,6.345825
